Time;durP1;ratioP1;P1;durP2;ratioP2;P2;SDS_P1;SDS_P2;PMS_P1;PMS_P2;Temp;Humidity;BMP_temperature;BMP_pressure;BME280_temperature;BME280_humidity;BME280_pressure;Samples;Min_cycle;Max_cycle;Signal;HPM_P1;HPM_P2
2022/12/09 00:00:19;;;;;;;11.40;8.90;;;6.00;1.00;;;;;;4995673;28;20267;-52
2022/12/09 00:02:45;;;;;;;12.03;9.37;;;5.90;1.00;;;;;;4990469;28;20196;-53
2022/12/09 00:05:10;;;;;;;12.67;9.60;;;6.00;1.00;;;;;;4983466;28;20249;-54
2022/12/09 00:07:36;;;;;;;13.70;9.20;;;6.00;1.00;;;;;;5000984;28;20185;-53
2022/12/09 00:10:03;;;;;;;12.73;9.90;;;5.90;1.00;;;;;;4998998;28;20534;-53
2022/12/09 00:12:29;;;;;;;13.10;10.20;;;6.00;1.00;;;;;;4994004;28;20196;-55
2022/12/09 00:14:55;;;;;;;12.53;10.00;;;6.10;1.00;;;;;;4986800;28;20448;-52
2022/12/09 00:17:20;;;;;;;13.43;9.80;;;6.10;1.00;;;;;;4992707;28;20196;-54
2022/12/09 00:19:46;;;;;;;14.30;10.50;;;6.10;1.00;;;;;;4998570;28;20271;-54
2022/12/09 00:22:12;;;;;;;14.90;10.03;;;6.10;1.00;;;;;;5001910;28;20195;-55
2022/12/09 00:24:37;;;;;;;12.00;10.33;;;6.60;1.00;;;;;;4992610;28;20208;-56
2022/12/09 00:27:03;;;;;;;17.70;10.97;;;6.20;1.00;;;;;;4977512;28;20205;-55
2022/12/09 00:29:28;;;;;;;15.00;10.40;;;6.30;1.00;;;;;;4994430;28;20229;-49
2022/12/09 00:31:54;;;;;;;12.63;9.80;;;6.20;1.00;;;;;;5003025;28;20264;-52
2022/12/09 00:34:20;;;;;;;14.07;9.80;;;6.20;1.00;;;;;;4997766;28;20212;-51
2022/12/09 00:36:45;;;;;;;15.40;10.67;;;6.30;1.00;;;;;;5001390;28;20298;-55
2022/12/09 00:39:11;;;;;;;12.50;10.03;;;6.30;1.00;;;;;;4994653;28;20189;-54
2022/12/09 00:41:36;;;;;;;16.03;10.10;;;6.30;1.00;;;;;;4986093;28;20223;-54
2022/12/09 00:44:02;;;;;;;12.83;9.80;;;6.30;1.00;;;;;;4988758;28;20705;-53
2022/12/09 00:46:28;;;;;;;13.73;10.30;;;6.30;1.00;;;;;;4988618;28;20229;-52
2022/12/09 00:48:54;;;;;;;13.77;10.00;;;6.30;1.00;;;;;;4999861;28;20640;-54
2022/12/09 00:51:22;;;;;;;14.43;10.20;;;6.20;1.00;;;;;;4984094;28;20186;-54
2022/12/09 00:53:52;;;;;;;12.50;10.13;;;6.30;1.00;;;;;;4994579;28;20273;-52
2022/12/09 00:56:17;;;;;;;13.67;11.00;;;6.30;1.00;;;;;;5005927;28;20444;-53
2022/12/09 00:58:43;;;;;;;13.07;9.40;;;6.40;1.00;;;;;;5000809;28;20909;-53
2022/12/09 01:01:09;;;;;;;16.37;11.17;;;6.30;1.00;;;;;;4992834;28;20200;-51
2022/12/09 01:03:34;;;;;;;14.80;10.40;;;6.40;1.00;;;;;;4992715;28;20235;-53
2022/12/09 01:06:00;;;;;;;15.10;11.60;;;6.40;1.00;;;;;;4986488;28;20214;-53
2022/12/09 01:08:25;;;;;;;14.53;9.83;;;6.50;1.00;;;;;;4988242;28;20279;-52
2022/12/09 01:10:51;;;;;;;11.37;9.63;;;6.50;1.00;;;;;;4986147;28;20195;-55
2022/12/09 01:13:17;;;;;;;12.20;9.27;;;6.40;1.00;;;;;;4983947;28;20196;-55
2022/12/09 01:15:43;;;;;;;14.83;10.83;;;6.50;1.00;;;;;;5000457;28;20563;-53
2022/12/09 01:18:10;;;;;;;11.03;8.40;;;6.50;1.00;;;;;;5001019;28;20198;-54
2022/12/09 01:20:36;;;;;;;13.00;10.03;;;6.50;1.00;;;;;;4993152;28;20450;-53
2022/12/09 01:23:02;;;;;;;13.93;11.50;;;6.60;1.00;;;;;;4991382;28;20776;-52
2022/12/09 01:25:28;;;;;;;15.13;9.67;;;6.50;1.00;;;;;;4994324;28;20236;-53
2022/12/09 01:27:53;;;;;;;14.40;9.77;;;6.50;1.00;;;;;;4990695;28;20758;-54
2022/12/09 01:30:19;;;;;;;12.00;10.20;;;6.60;1.00;;;;;;4999825;28;20210;-54
2022/12/09 01:32:45;;;;;;;10.83;8.73;;;6.50;1.00;;;;;;5006584;28;20271;-51
2022/12/09 01:35:11;;;;;;;12.60;9.00;;;6.50;1.00;;;;;;5002284;28;20189;-53
2022/12/09 01:37:37;;;;;;;11.50;9.13;;;6.50;1.00;;;;;;4998852;28;20999;-54
2022/12/09 01:40:09;;;;;;;12.07;9.83;;;6.50;1.00;;;;;;4991301;28;20456;-51
2022/12/09 01:42:35;;;;;;;13.43;9.73;;;6.50;1.00;;;;;;4987226;28;20200;-51
2022/12/09 01:45:18;;;;;;;15.37;10.80;;;6.50;1.00;;;;;;4992863;28;20560;-52
2022/12/09 01:47:50;;;;;;;19.37;13.30;;;6.50;1.00;;;;;;4987603;28;20738;-52
2022/12/09 01:50:17;;;;;;;22.07;16.17;;;6.50;1.00;;;;;;4992528;28;20416;-52
2022/12/09 01:52:44;;;;;;;16.13;12.47;;;6.50;1.00;;;;;;4988843;28;20516;-51
2022/12/09 01:55:11;;;;;;;15.80;12.37;;;6.50;1.00;;;;;;4991116;28;20471;-53
2022/12/09 01:57:37;;;;;;;21.47;14.80;;;6.50;1.00;;;;;;4989187;28;20543;-49
2022/12/09 02:00:04;;;;;;;18.30;13.90;;;6.40;1.00;;;;;;4995183;28;20992;-54
2022/12/09 02:02:31;;;;;;;18.40;12.50;;;6.50;1.00;;;;;;4992980;28;20830;-56
2022/12/09 02:04:57;;;;;;;20.80;15.50;;;6.50;1.00;;;;;;4990468;28;20818;-54
2022/12/09 02:07:23;;;;;;;21.50;15.03;;;6.60;1.00;;;;;;4989652;28;20449;-52
2022/12/09 02:09:52;;;;;;;22.53;15.63;;;6.60;1.00;;;;;;4991031;28;20438;-54
2022/12/09 02:12:37;;;;;;;23.70;15.87;;;6.60;1.00;;;;;;4995191;28;20187;-53
2022/12/09 02:15:13;;;;;;;17.07;12.37;;;6.50;1.00;;;;;;4995523;28;20419;-53
2022/12/09 02:17:49;;;;;;;12.53;10.70;;;6.70;1.00;;;;;;4994586;28;20449;-54
2022/12/09 02:20:36;;;;;;;14.97;10.70;;;6.60;1.00;;;;;;4998680;28;20856;-55
2022/12/09 02:23:07;;;;;;;12.90;9.93;;;6.60;1.00;;;;;;4990470;28;20455;-54
2022/12/09 02:26:06;;;;;;;16.27;10.00;;;6.50;1.00;;;;;;4992768;28;20825;-53
2022/12/09 02:28:55;;;;;;;12.17;9.60;;;6.50;1.00;;;;;;4973626;28;20456;-51
2022/12/09 02:31:39;;;;;;;14.53;10.53;;;6.50;1.00;;;;;;4990027;28;20480;-54
2022/12/09 02:34:21;;;;;;;15.27;10.10;;;6.40;1.00;;;;;;5005608;28;20436;-53
2022/12/09 02:36:58;;;;;;;15.23;11.10;;;6.50;1.00;;;;;;5002893;28;20481;-51
2022/12/09 02:39:38;;;;;;;13.77;10.20;;;6.40;1.00;;;;;;5001062;28;20461;-53
2022/12/09 02:42:07;;;;;;;16.10;10.50;;;6.30;1.00;;;;;;5000108;28;20452;-55
2022/12/09 02:44:34;;;;;;;14.77;11.47;;;6.30;1.00;;;;;;4991595;28;20561;-55
2022/12/09 02:47:03;;;;;;;12.57;10.53;;;6.40;1.00;;;;;;4988073;28;20866;-55
2022/12/09 02:49:31;;;;;;;13.70;10.93;;;6.40;1.00;;;;;;4995649;28;20453;-52
2022/12/09 02:51:57;;;;;;;15.70;12.33;;;6.40;1.00;;;;;;4987167;28;20457;-55
2022/12/09 02:54:23;;;;;;;13.70;10.67;;;6.40;1.00;;;;;;4996954;28;21033;-53
2022/12/09 02:56:55;;;;;;;15.20;11.33;;;6.40;1.00;;;;;;4986694;28;20455;-52
2022/12/09 02:59:21;;;;;;;14.00;11.30;;;6.30;1.00;;;;;;4988274;28;20503;-52
2022/12/09 03:02:10;;;;;;;14.30;11.17;;;6.40;1.00;;;;;;4989530;28;20954;-51
2022/12/09 03:04:39;;;;;;;16.07;11.80;;;6.40;1.00;;;;;;4996421;28;20245;-52
2022/12/09 03:07:28;;;;;;;15.97;12.60;;;6.40;1.00;;;;;;5003211;28;20952;-51
2022/12/09 03:10:04;;;;;;;19.33;11.70;;;6.40;1.00;;;;;;4983568;28;21034;-52
2022/12/09 03:12:32;;;;;;;17.30;13.23;;;6.40;1.00;;;;;;4993224;28;20454;-53
2022/12/09 03:15:01;;;;;;;14.47;11.50;;;6.50;1.00;;;;;;5004312;28;20529;-57
2022/12/09 03:17:34;;;;;;;15.27;10.87;;;6.40;1.00;;;;;;4999814;28;20471;-54
2022/12/09 03:20:10;;;;;;;14.80;11.30;;;6.30;1.00;;;;;;4995555;28;20421;-55
2022/12/09 03:22:38;;;;;;;16.17;12.00;;;6.20;1.00;;;;;;4999710;28;20763;-52
2022/12/09 03:25:12;;;;;;;16.17;12.23;;;6.20;1.00;;;;;;4991971;28;20466;-52
2022/12/09 03:27:47;;;;;;;16.90;11.87;;;6.20;1.00;;;;;;4997166;28;20443;-53
2022/12/09 03:30:14;;;;;;;15.40;11.83;;;6.20;1.00;;;;;;4994307;28;20799;-53
2022/12/09 03:32:42;;;;;;;14.23;12.70;;;6.30;1.00;;;;;;4996843;28;20429;-53
2022/12/09 03:35:34;;;;;;;15.03;12.27;;;6.30;1.00;;;;;;4991870;28;20511;-53
2022/12/09 03:38:04;;;;;;;17.23;12.90;;;6.40;1.00;;;;;;4994697;28;20455;-54
2022/12/09 03:40:31;;;;;;;15.90;11.63;;;6.40;1.00;;;;;;4992956;28;20498;-52
2022/12/09 03:43:20;;;;;;;14.87;12.40;;;6.40;1.00;;;;;;5004874;28;20421;-52
2022/12/09 03:45:46;;;;;;;22.23;13.90;;;6.40;1.00;;;;;;4999440;28;20493;-52
2022/12/09 03:48:12;;;;;;;15.50;11.90;;;6.40;1.00;;;;;;4995616;28;20462;-52
2022/12/09 03:50:48;;;;;;;14.60;11.43;;;6.40;1.00;;;;;;4999614;28;20448;-52
2022/12/09 03:53:20;;;;;;;15.03;11.60;;;6.50;1.00;;;;;;4995884;28;20518;-54
2022/12/09 03:56:22;;;;;;;13.27;10.07;;;6.40;1.00;;;;;;4992228;28;21016;-53
2022/12/09 03:58:51;;;;;;;16.13;11.87;;;6.50;1.00;;;;;;4955452;28;20457;-53
2022/12/09 04:01:18;;;;;;;18.17;12.50;;;6.40;1.00;;;;;;4990920;28;20518;-51
2022/12/09 04:03:47;;;;;;;15.20;12.03;;;6.50;1.00;;;;;;4980996;28;20467;-52
2022/12/09 04:06:13;;;;;;;15.50;11.27;;;6.40;1.00;;;;;;4996828;28;20491;-53
2022/12/09 04:08:38;;;;;;;15.17;11.70;;;6.30;1.00;;;;;;4990809;28;20543;-54
2022/12/09 04:11:04;;;;;;;15.60;11.50;;;6.40;1.00;;;;;;4988967;28;20244;-54
2022/12/09 04:13:29;;;;;;;16.33;12.17;;;6.30;1.00;;;;;;4992678;28;20192;-50
2022/12/09 04:15:55;;;;;;;15.13;11.40;;;6.40;1.00;;;;;;4987225;28;20190;-54
2022/12/09 04:18:21;;;;;;;12.93;11.20;;;6.40;1.00;;;;;;4986890;28;20281;-55
2022/12/09 04:20:46;;;;;;;15.10;12.80;;;6.40;1.00;;;;;;4994850;28;20192;-54
2022/12/09 04:23:12;;;;;;;14.53;11.93;;;6.40;1.00;;;;;;4996375;28;20214;-54
2022/12/09 04:25:37;;;;;;;15.17;11.77;;;6.40;1.00;;;;;;4994267;28;20287;-56
2022/12/09 04:28:03;;;;;;;17.80;12.00;;;6.30;1.00;;;;;;5001641;28;20344;-52
2022/12/09 04:30:29;;;;;;;16.87;12.40;;;6.30;1.00;;;;;;4992407;28;20280;-55
2022/12/09 04:32:54;;;;;;;16.10;11.13;;;6.40;1.00;;;;;;4993852;28;20185;-53
2022/12/09 04:35:20;;;;;;;14.77;11.17;;;6.30;1.00;;;;;;4988668;28;20197;-53
2022/12/09 04:37:46;;;;;;;14.00;10.67;;;6.30;1.00;;;;;;4990603;28;20634;-52
2022/12/09 04:40:12;;;;;;;14.67;12.07;;;6.30;1.00;;;;;;4990148;28;20225;-53
2022/12/09 04:42:37;;;;;;;15.97;12.37;;;6.40;1.00;;;;;;4974206;28;20197;-54
2022/12/09 04:45:03;;;;;;;12.70;10.30;;;6.40;1.00;;;;;;4984833;28;21077;-54
2022/12/09 04:47:29;;;;;;;15.97;11.27;;;6.40;1.00;;;;;;4992289;28;20236;-53
2022/12/09 04:49:55;;;;;;;15.30;11.40;;;6.40;1.00;;;;;;4989833;28;20476;-52
2022/12/09 04:52:20;;;;;;;15.53;12.53;;;6.40;1.00;;;;;;4988367;28;20212;-54
2022/12/09 04:54:49;;;;;;;15.33;11.73;;;6.40;1.00;;;;;;4988898;28;20370;-52
2022/12/09 04:57:15;;;;;;;13.03;9.57;;;6.40;1.00;;;;;;4986587;28;20191;-54
2022/12/09 04:59:40;;;;;;;12.17;9.50;;;6.40;1.00;;;;;;4986559;28;20419;-54
2022/12/09 05:02:06;;;;;;;11.90;8.53;;;6.40;1.00;;;;;;4999840;28;20194;-53
2022/12/09 05:04:32;;;;;;;12.43;9.57;;;6.40;1.00;;;;;;4996652;28;20693;-53
2022/12/09 05:06:57;;;;;;;11.40;9.20;;;6.30;1.00;;;;;;4999909;28;20666;-54
2022/12/09 05:09:23;;;;;;;11.40;9.00;;;6.30;1.00;;;;;;4999278;28;20197;-53
2022/12/09 05:11:50;;;;;;;12.00;9.30;;;6.10;1.00;;;;;;4997854;28;20651;-54
2022/12/09 05:14:16;;;;;;;14.57;11.07;;;6.30;1.00;;;;;;4992491;28;20651;-55
2022/12/09 05:16:42;;;;;;;14.10;10.80;;;6.40;1.00;;;;;;4995100;28;20466;-54
2022/12/09 05:19:07;;;;;;;14.40;10.90;;;6.40;1.00;;;;;;5000348;28;20207;-54
2022/12/09 05:21:33;;;;;;;12.87;10.43;;;6.30;1.00;;;;;;5005099;28;20295;-54
2022/12/09 05:24:01;;;;;;;15.40;11.57;;;6.30;1.00;;;;;;5003201;28;20660;-54
2022/12/09 05:26:26;;;;;;;15.43;11.33;;;6.30;1.00;;;;;;4995040;28;20623;-56
2022/12/09 05:28:52;;;;;;;15.30;10.37;;;6.40;1.00;;;;;;4998245;28;20434;-52
2022/12/09 05:31:19;;;;;;;13.10;11.10;;;6.40;1.00;;;;;;4998904;28;20187;-52
2022/12/09 05:33:46;;;;;;;12.43;8.93;;;6.50;1.00;;;;;;4990365;28;20189;-54
2022/12/09 05:36:15;;;;;;;12.00;9.60;;;6.60;1.00;;;;;;4988224;28;20891;-54
2022/12/09 05:38:41;;;;;;;17.67;11.87;;;6.50;1.00;;;;;;4995547;28;20937;-53
2022/12/09 05:41:07;;;;;;;16.30;12.13;;;6.60;1.00;;;;;;5008979;28;20527;-54
2022/12/09 05:43:33;;;;;;;13.60;11.27;;;6.60;1.00;;;;;;5005068;28;20555;-54
2022/12/09 05:46:00;;;;;;;15.60;10.83;;;6.60;1.00;;;;;;5003677;28;20464;-54
2022/12/09 05:48:26;;;;;;;14.07;10.80;;;6.50;1.00;;;;;;4999281;28;20549;-54
2022/12/09 05:50:59;;;;;;;12.80;10.40;;;6.50;1.00;;;;;;4997112;28;20521;-55
2022/12/09 05:53:25;;;;;;;14.07;9.93;;;6.50;1.00;;;;;;4994357;28;20200;-52
2022/12/09 05:55:50;;;;;;;12.07;9.10;;;6.50;1.00;;;;;;5000558;28;20417;-52
2022/12/09 05:58:16;;;;;;;13.33;9.90;;;6.50;1.00;;;;;;4998829;28;20961;-53
2022/12/09 06:00:42;;;;;;;15.07;10.47;;;6.50;1.00;;;;;;5003661;28;20275;-54
2022/12/09 06:03:07;;;;;;;15.33;10.60;;;6.50;1.00;;;;;;5000313;28;20190;-54
2022/12/09 06:05:33;;;;;;;13.90;10.60;;;6.50;1.00;;;;;;4997151;28;20671;-53
2022/12/09 06:07:59;;;;;;;17.30;12.10;;;6.50;1.00;;;;;;4999332;28;20189;-54
2022/12/09 06:10:24;;;;;;;15.20;11.80;;;6.50;1.00;;;;;;5004266;28;20211;-54
2022/12/09 06:12:54;;;;;;;14.73;11.50;;;6.50;1.00;;;;;;4997094;28;20263;-53
2022/12/09 06:15:19;;;;;;;16.57;11.33;;;6.50;1.00;;;;;;5004469;28;20188;-52
2022/12/09 06:17:45;;;;;;;16.63;11.33;;;6.40;1.00;;;;;;5003891;28;20458;-53
2022/12/09 06:20:11;;;;;;;16.27;10.73;;;6.40;1.00;;;;;;5005868;28;20195;-53
2022/12/09 06:22:36;;;;;;;14.50;10.47;;;6.40;1.00;;;;;;4999481;28;20321;-55
2022/12/09 06:25:02;;;;;;;18.73;11.20;;;6.40;1.00;;;;;;4999394;28;20201;-54
2022/12/09 06:27:27;;;;;;;12.33;10.00;;;6.40;1.00;;;;;;4992213;28;20209;-53
2022/12/09 06:29:53;;;;;;;12.17;10.73;;;6.30;1.00;;;;;;4996189;28;20197;-53
2022/12/09 06:32:19;;;;;;;15.17;10.53;;;6.30;1.00;;;;;;5005010;28;20271;-54
2022/12/09 06:34:44;;;;;;;14.53;11.43;;;6.40;1.00;;;;;;4998997;28;20225;-53
2022/12/09 06:37:10;;;;;;;13.87;9.50;;;6.50;1.00;;;;;;4998995;28;20631;-54
2022/12/09 06:39:35;;;;;;;15.37;10.83;;;6.50;1.00;;;;;;4997708;28;20193;-52
2022/12/09 06:42:03;;;;;;;13.33;10.20;;;6.40;1.00;;;;;;4998520;28;20200;-54
2022/12/09 06:44:28;;;;;;;14.77;10.23;;;6.40;1.00;;;;;;4999297;28;20724;-56
2022/12/09 06:46:54;;;;;;;10.13;8.37;;;6.50;1.00;;;;;;5007912;28;20487;-55
2022/12/09 06:49:20;;;;;;;14.57;10.17;;;6.50;1.00;;;;;;5010854;28;20191;-55
2022/12/09 06:51:46;;;;;;;13.40;9.50;;;6.50;1.00;;;;;;4993079;28;20580;-53
2022/12/09 06:54:11;;;;;;;13.23;9.70;;;6.50;1.00;;;;;;4981741;28;20186;-55
2022/12/09 06:56:37;;;;;;;10.80;7.67;;;6.40;1.00;;;;;;5006315;28;20183;-53
2022/12/09 06:59:08;;;;;;;17.07;9.43;;;6.50;1.00;;;;;;4995649;28;20237;-51
2022/12/09 07:01:34;;;;;;;15.00;9.80;;;6.60;1.00;;;;;;4996778;28;20220;-52
2022/12/09 07:03:59;;;;;;;12.37;10.20;;;6.50;1.00;;;;;;4994988;28;20829;-53
2022/12/09 07:06:26;;;;;;;14.83;10.53;;;6.50;1.00;;;;;;4993797;28;20533;-54
2022/12/09 07:08:53;;;;;;;13.30;8.90;;;6.50;1.00;;;;;;4996900;28;20272;-54
2022/12/09 07:11:18;;;;;;;13.40;10.07;;;6.50;1.00;;;;;;4997667;28;21051;-52
2022/12/09 07:13:44;;;;;;;13.30;9.80;;;6.50;1.00;;;;;;4997303;28;20539;-52
2022/12/09 07:16:11;;;;;;;15.73;10.40;;;6.40;1.00;;;;;;5002572;28;20189;-54
2022/12/09 07:18:36;;;;;;;14.57;10.27;;;6.40;1.00;;;;;;4993502;28;20198;-56
2022/12/09 07:21:10;;;;;;;14.43;11.03;;;6.40;1.00;;;;;;5008404;28;20793;-52
2022/12/09 07:23:36;;;;;;;13.10;10.80;;;6.40;1.00;;;;;;5008156;28;20542;-53
2022/12/09 07:26:04;;;;;;;16.77;11.23;;;6.40;1.00;;;;;;4996588;28;20442;-55
2022/12/09 07:28:30;;;;;;;15.33;10.90;;;6.40;1.00;;;;;;4995200;28;20463;-54
2022/12/09 07:30:56;;;;;;;18.43;10.50;;;6.40;1.00;;;;;;4989132;28;20508;-53
2022/12/09 07:33:22;;;;;;;18.03;12.17;;;6.40;1.00;;;;;;4996083;28;20427;-55
2022/12/09 07:35:47;;;;;;;15.53;11.20;;;6.40;1.00;;;;;;4996275;28;20189;-53
2022/12/09 07:38:13;;;;;;;17.60;12.80;;;6.40;1.00;;;;;;5007363;28;20397;-52
2022/12/09 07:40:39;;;;;;;22.07;11.40;;;6.50;1.00;;;;;;5009320;28;20204;-53
2022/12/09 07:43:06;;;;;;;17.37;12.30;;;6.50;1.00;;;;;;5002083;28;20243;-52
2022/12/09 07:45:34;;;;;;;18.63;11.90;;;6.50;1.00;;;;;;5001983;28;20527;-54
2022/12/09 07:48:00;;;;;;;18.37;12.47;;;6.60;1.00;;;;;;5002475;28;20876;-54
2022/12/09 07:50:25;;;;;;;22.20;13.00;;;6.70;1.00;;;;;;5004351;28;20411;-56
2022/12/09 07:52:51;;;;;;;19.17;12.60;;;6.70;1.00;;;;;;5000904;28;20174;-56
2022/12/09 07:55:17;;;;;;;18.60;11.90;;;6.80;1.00;;;;;;5002499;28;20655;-54
2022/12/09 07:57:42;;;;;;;21.93;12.60;;;6.80;1.00;;;;;;4987294;28;20243;-54
2022/12/09 08:00:08;;;;;;;21.03;12.03;;;6.80;1.00;;;;;;5005927;28;20643;-54
2022/12/09 08:02:34;;;;;;;14.27;11.77;;;6.80;1.00;;;;;;4998807;28;20200;-52
2022/12/09 08:05:01;;;;;;;23.27;12.97;;;6.80;1.00;;;;;;4999945;28;20481;-55
2022/12/09 08:07:27;;;;;;;18.30;13.00;;;6.90;1.00;;;;;;5002586;28;20562;-53
2022/12/09 08:09:55;;;;;;;18.13;12.23;;;7.00;1.00;;;;;;5001225;28;20448;-53
2022/12/09 08:12:21;;;;;;;21.80;12.23;;;6.90;1.00;;;;;;4995507;28;20974;-55
2022/12/09 08:14:47;;;;;;;19.90;12.20;;;6.90;1.00;;;;;;4999156;28;20467;-53
2022/12/09 08:17:12;;;;;;;17.30;11.83;;;6.90;1.00;;;;;;5007118;28;20475;-51
2022/12/09 08:19:38;;;;;;;16.47;12.93;;;6.90;1.00;;;;;;4997087;28;20228;-54
2022/12/09 08:22:04;;;;;;;19.93;14.03;;;7.10;1.00;;;;;;4998165;28;20533;-55
2022/12/09 08:24:29;;;;;;;18.87;12.77;;;7.20;1.00;;;;;;4995753;28;20174;-52
2022/12/09 08:26:55;;;;;;;17.00;12.37;;;7.10;1.00;;;;;;5012206;28;20204;-54
2022/12/09 08:29:21;;;;;;;16.60;11.73;;;7.20;1.00;;;;;;5008247;28;20232;-52
2022/12/09 08:31:46;;;;;;;19.40;12.60;;;7.30;1.00;;;;;;5005248;28;20184;-52
2022/12/09 08:34:13;;;;;;;20.47;12.90;;;7.20;1.00;;;;;;4996975;28;20558;-55
2022/12/09 08:36:40;;;;;;;17.73;12.30;;;7.10;1.00;;;;;;4991690;28;20182;-53
2022/12/09 08:39:06;;;;;;;19.30;12.67;;;7.00;1.00;;;;;;5013789;28;20440;-54
2022/12/09 08:41:34;;;;;;;19.40;13.30;;;7.00;1.00;;;;;;4992920;28;20942;-53
2022/12/09 08:44:09;;;;;;;19.03;13.23;;;6.90;1.00;;;;;;5003954;28;20445;-55
2022/12/09 08:46:36;;;;;;;16.87;12.50;;;7.00;1.00;;;;;;5005137;28;20591;-52
2022/12/09 08:49:03;;;;;;;18.07;13.23;;;7.00;1.00;;;;;;5009044;28;20433;-53
2022/12/09 08:51:29;;;;;;;20.23;12.60;;;8.50;1.00;;;;;;5004764;28;20410;-54
2022/12/09 08:53:56;;;;;;;18.87;12.60;;;7.00;1.00;;;;;;5001456;28;20448;-53
2022/12/09 08:56:22;;;;;;;17.57;12.50;;;6.90;1.00;;;;;;4999910;28;20992;-54
2022/12/09 08:58:48;;;;;;;20.60;12.37;;;6.90;1.00;;;;;;5002505;28;20438;-55
2022/12/09 09:01:15;;;;;;;19.47;12.00;;;6.90;1.00;;;;;;5009582;28;20352;-53
2022/12/09 09:03:42;;;;;;;15.90;12.73;;;6.90;1.00;;;;;;5013016;28;20270;-50
2022/12/09 09:06:08;;;;;;;18.83;12.50;;;6.90;1.00;;;;;;5010822;28;20463;-55
2022/12/09 09:08:33;;;;;;;17.47;13.90;;;6.80;1.00;;;;;;5006776;28;20522;-54
2022/12/09 09:10:59;;;;;;;17.97;12.87;;;6.90;1.00;;;;;;5002353;28;20445;-53
2022/12/09 09:13:25;;;;;;;21.90;12.77;;;6.90;1.00;;;;;;5006327;28;20185;-52
2022/12/09 09:15:51;;;;;;;21.30;13.60;;;7.00;1.00;;;;;;5004587;28;20228;-53
2022/12/09 09:18:17;;;;;;;14.90;11.37;;;6.90;1.00;;;;;;5005828;28;20420;-53
2022/12/09 09:20:46;;;;;;;18.27;13.53;;;6.70;1.00;;;;;;5000430;28;20197;-53
2022/12/09 09:23:13;;;;;;;16.93;12.20;;;6.60;1.00;;;;;;5001297;28;20563;-55
2022/12/09 09:25:40;;;;;;;15.87;12.27;;;6.50;1.00;;;;;;4998314;28;20471;-53
2022/12/09 09:28:06;;;;;;;17.93;13.30;;;6.40;1.00;;;;;;4995978;28;20515;-55
2022/12/09 09:30:33;;;;;;;17.97;11.87;;;6.40;1.00;;;;;;4997059;28;20535;-53
2022/12/09 09:32:58;;;;;;;17.03;12.73;;;6.30;1.00;;;;;;5009591;28;20628;-54
2022/12/09 09:35:24;;;;;;;15.27;11.73;;;6.40;1.00;;;;;;4996572;28;20528;-54
2022/12/09 09:37:50;;;;;;;22.20;13.60;;;6.30;1.00;;;;;;4998275;28;20196;-52
2022/12/09 09:40:16;;;;;;;17.60;12.50;;;6.40;1.00;;;;;;4998916;28;20220;-54
2022/12/09 09:42:48;;;;;;;17.83;13.23;;;6.40;1.00;;;;;;4994484;28;20467;-53
2022/12/09 09:45:18;;;;;;;17.43;12.97;;;6.50;1.00;;;;;;5005866;28;20464;-54
2022/12/09 09:48:01;;;;;;;19.83;13.50;;;6.50;1.00;;;;;;4997917;28;20464;-53
2022/12/09 09:50:51;;;;;;;19.43;13.40;;;6.60;1.00;;;;;;4995843;28;20964;-55
2022/12/09 09:53:24;;;;;;;18.43;13.57;;;6.60;1.00;;;;;;4999043;28;20526;-54
2022/12/09 09:55:57;;;;;;;21.30;14.40;;;6.50;1.00;;;;;;5007160;28;20848;-53
2022/12/09 09:59:02;;;;;;;23.37;15.07;;;6.50;1.00;;;;;;5002627;28;20438;-55
2022/12/09 10:01:34;;;;;;;18.80;14.47;;;6.40;1.00;;;;;;4946046;28;20439;-53
2022/12/09 10:04:17;;;;;;;21.27;15.33;;;6.40;1.00;;;;;;4995558;28;20407;-56
2022/12/09 10:07:04;;;;;;;19.23;14.33;;;6.40;1.00;;;;;;4975827;28;21067;-55
2022/12/09 10:09:44;;;;;;;20.90;15.37;;;6.30;1.00;;;;;;5004292;28;20435;-55
2022/12/09 10:12:38;;;;;;;21.40;15.43;;;6.20;1.00;;;;;;5011436;28;20442;-54
2022/12/09 10:15:12;;;;;;;25.90;17.20;;;6.10;1.00;;;;;;5005044;28;20418;-55
2022/12/09 10:17:54;;;;;;;23.23;15.20;;;6.30;1.00;;;;;;5008423;28;20445;-55
2022/12/09 10:20:27;;;;;;;21.40;15.30;;;6.50;1.00;;;;;;4983767;28;20443;-52
2022/12/09 10:22:58;;;;;;;26.13;16.20;;;6.60;1.00;;;;;;5008664;28;20444;-56
2022/12/09 10:25:28;;;;;;;22.37;15.40;;;6.80;1.00;;;;;;4980757;28;20442;-53
2022/12/09 10:27:53;;;;;;;26.40;16.97;;;6.90;1.00;;;;;;4987041;28;20712;-56
2022/12/09 10:30:21;;;;;;;23.40;15.77;;;7.00;1.00;;;;;;4995199;28;20432;-55
2022/12/09 10:32:47;;;;;;;21.13;15.93;;;7.00;1.00;;;;;;5005432;28;20193;-54
2022/12/09 10:35:14;;;;;;;19.90;15.50;;;7.00;1.00;;;;;;4987162;28;20525;-56
2022/12/09 10:37:39;;;;;;;29.23;18.03;;;7.00;1.00;;;;;;4987480;28;20448;-53
2022/12/09 10:40:08;;;;;;;26.50;17.50;;;7.00;1.00;;;;;;4997739;28;20579;-55
2022/12/09 10:45:28;;;;;;;20.37;15.70;;;7.30;1.00;;;;;;4997138;28;20612;-54
2022/12/09 10:47:55;;;;;;;19.57;14.50;;;7.30;1.00;;;;;;5005493;28;20446;-54
2022/12/09 10:50:34;;;;;;;21.67;15.27;;;7.30;1.00;;;;;;4985003;28;20449;-53
2022/12/09 10:53:06;;;;;;;20.27;15.80;;;7.40;1.00;;;;;;5002288;28;20444;-55
2022/12/09 10:55:48;;;;;;;27.13;17.63;;;7.30;1.00;;;;;;5005492;28;20509;-54
2022/12/09 10:58:26;;;;;;;21.20;15.83;;;7.20;1.00;;;;;;4980450;28;20440;-55
2022/12/09 11:01:03;;;;;;;25.13;16.53;;;7.10;1.00;;;;;;4991435;28;20461;-55
2022/12/09 11:03:52;;;;;;;24.10;17.03;;;7.20;1.00;;;;;;5013116;28;20443;-52
2022/12/09 11:06:21;;;;;;;23.83;16.40;;;7.30;1.00;;;;;;4990798;28;20564;-55
2022/12/09 11:08:59;;;;;;;18.53;15.13;;;7.20;1.00;;;;;;4976583;28;20440;-54
2022/12/09 11:11:43;;;;;;;24.93;16.70;;;7.20;1.00;;;;;;4996127;28;20461;-54
2022/12/09 11:14:34;;;;;;;24.07;16.70;;;7.20;1.00;;;;;;4989721;28;20922;-53
2022/12/09 11:17:12;;;;;;;23.73;16.37;;;7.20;1.00;;;;;;4996692;28;20487;-51
2022/12/09 11:19:38;;;;;;;21.60;16.77;;;7.30;1.00;;;;;;4977162;28;20903;-55
2022/12/09 11:22:19;;;;;;;22.73;17.13;;;7.40;1.00;;;;;;4995655;28;20453;-52
2022/12/09 11:24:44;;;;;;;22.57;16.60;;;7.50;1.00;;;;;;5006447;28;20501;-54
2022/12/09 11:27:31;;;;;;;19.93;15.80;;;7.70;1.00;;;;;;5005603;28;20557;-54
2022/12/09 11:30:13;;;;;;;22.57;15.90;;;7.80;1.00;;;;;;5002035;28;20642;-51
2022/12/09 11:33:17;;;;;;;22.10;16.97;;;7.80;1.00;;;;;;5009661;28;20420;-55
2022/12/09 11:35:42;;;;;;;20.80;15.70;;;7.70;1.00;;;;;;4990702;28;20413;-54
2022/12/09 11:38:23;;;;;;;24.60;16.67;;;7.70;1.00;;;;;;5006462;28;20439;-55
2022/12/09 11:41:10;;;;;;;21.23;15.33;;;7.70;1.00;;;;;;5000266;28;20495;-53
2022/12/09 11:43:43;;;;;;;23.90;16.97;;;7.70;1.00;;;;;;5003253;28;20452;-55
2022/12/09 11:46:11;;;;;;;20.20;15.63;;;7.70;1.00;;;;;;5001501;28;20481;-52
2022/12/09 11:48:47;;;;;;;20.80;14.80;;;7.60;1.00;;;;;;4993044;28;20476;-55
2022/12/09 11:51:31;;;;;;;23.70;16.17;;;7.80;1.00;;;;;;5006038;28;20970;-55
2022/12/09 11:54:09;;;;;;;24.57;16.23;;;7.90;1.00;;;;;;5013130;28;20491;-52
2022/12/09 11:56:37;;;;;;;25.50;17.67;;;7.90;1.00;;;;;;4981092;28;20423;-51
2022/12/09 11:59:19;;;;;;;19.90;14.73;;;7.80;1.00;;;;;;4993255;28;20441;-52
2022/12/09 12:02:03;;;;;;;21.97;16.40;;;7.80;1.00;;;;;;5010021;28;20535;-53
2022/12/09 12:04:37;;;;;;;29.30;17.87;;;7.70;1.00;;;;;;5013175;28;20907;-53
2022/12/09 12:07:31;;;;;;;23.60;16.70;;;7.80;1.00;;;;;;4992052;28;20925;-53
2022/12/09 12:09:57;;;;;;;23.70;16.70;;;7.80;1.00;;;;;;4988694;28;20562;-54
2022/12/09 12:12:51;;;;;;;22.47;16.27;;;7.80;1.00;;;;;;4982126;28;20430;-53
2022/12/09 12:15:40;;;;;;;25.07;15.93;;;7.70;1.00;;;;;;5003849;28;20825;-54
2022/12/09 12:18:13;;;;;;;21.30;16.00;;;7.90;1.00;;;;;;4980826;28;20446;-54
2022/12/09 12:21:09;;;;;;;23.10;15.00;;;7.80;1.00;;;;;;4988231;28;20431;-53
2022/12/09 12:23:38;;;;;;;22.03;15.17;;;7.60;1.00;;;;;;4995390;28;20477;-53
2022/12/09 12:26:20;;;;;;;24.27;15.97;;;7.60;1.00;;;;;;5004457;28;20446;-55
2022/12/09 12:29:01;;;;;;;21.20;15.43;;;7.60;1.00;;;;;;4994036;28;20455;-54
2022/12/09 12:31:54;;;;;;;20.93;15.80;;;7.60;1.00;;;;;;4995308;28;20841;-54
2022/12/09 12:34:42;;;;;;;20.23;13.97;;;7.60;1.00;;;;;;5009180;28;20820;-56
2022/12/09 12:37:16;;;;;;;16.90;14.43;;;7.60;1.00;;;;;;4997049;28;20460;-53
2022/12/09 12:40:06;;;;;;;18.93;14.37;;;7.80;1.00;;;;;;4997501;28;20436;-56
2022/12/09 12:46:16;;;;;;;19.90;14.90;;;7.80;1.00;;;;;;4992625;28;20446;-53
2022/12/09 12:48:53;;;;;;;18.40;14.57;;;7.70;1.00;;;;;;4986821;28;20429;-52
2022/12/09 12:51:30;;;;;;;27.70;15.63;;;7.40;1.00;;;;;;4989229;28;20471;-55
2022/12/09 12:54:19;;;;;;;19.40;15.03;;;7.30;1.00;;;;;;5012807;28;20794;-53
2022/12/09 12:57:07;;;;;;;21.20;14.57;;;7.40;1.00;;;;;;4997600;28;20831;-54
2022/12/09 12:59:44;;;;;;;18.40;15.10;;;7.50;1.00;;;;;;5007896;28;20451;-54
2022/12/09 13:02:34;;;;;;;20.17;15.30;;;7.30;1.00;;;;;;4992379;28;20463;-52
2022/12/09 13:05:03;;;;;;;19.87;14.83;;;7.40;1.00;;;;;;5000471;28;20436;-51
2022/12/09 13:07:56;;;;;;;20.60;15.53;;;7.20;1.00;;;;;;5002624;28;20436;-53
2022/12/09 13:10:46;;;;;;;19.97;14.60;;;7.10;1.00;;;;;;5004806;28;20449;-54